createdAt,value
2018-09-11T00:00:56.017Z,66.89
2018-09-11T00:03:24.389Z,66.76
2018-09-11T00:05:52.780Z,67.58
2018-09-11T00:08:21.136Z,67.24
2018-09-11T00:10:49.534Z,67.37
2018-09-11T00:13:17.899Z,67.60
2018-09-11T00:15:46.294Z,68.40
2018-09-11T00:18:14.667Z,68.58
2018-09-11T00:20:43.054Z,68.80
2018-09-11T00:23:11.445Z,69.49
2018-09-11T00:25:39.829Z,69.17
2018-09-11T00:28:08.315Z,69.87
2018-09-11T00:30:36.705Z,69.22
2018-09-11T00:33:05.074Z,69.58
2018-09-11T00:35:33.467Z,69.22
2018-09-11T00:38:01.845Z,70.07
2018-09-11T00:40:30.260Z,69.25
2018-09-11T00:42:58.635Z,69.51
2018-09-11T00:45:27.033Z,69.21
2018-09-11T00:47:55.397Z,69.39
2018-09-11T00:50:23.764Z,69.61
2018-09-11T00:52:52.162Z,68.67
2018-09-11T00:55:20.525Z,68.65
2018-09-11T00:57:48.927Z,69.03
2018-09-11T01:00:17.323Z,68.69
2018-09-11T01:02:45.767Z,69.05
2018-09-11T01:05:14.129Z,68.32
2018-09-11T01:07:42.530Z,68.75
2018-09-11T01:10:11.453Z,69.48
2018-09-11T01:12:39.848Z,69.63
2018-09-11T01:15:09.214Z,69.63
2018-09-11T01:17:37.819Z,68.91
2018-09-11T01:20:06.782Z,69.47
2018-09-11T01:22:35.193Z,69.24
2018-09-11T01:25:03.553Z,68.14
2018-09-11T01:27:31.955Z,67.79
2018-09-11T01:30:00.323Z,67.66
2018-09-11T01:32:28.709Z,67.75
2018-09-11T01:34:57.078Z,67.54
2018-09-11T01:37:25.466Z,66.68
2018-09-11T01:39:53.839Z,66.67
2018-09-11T01:42:22.231Z,65.93
2018-09-11T01:44:50.596Z,65.97
2018-09-11T01:47:18.987Z,65.21
2018-09-11T01:49:47.347Z,65.33
2018-09-11T01:52:15.738Z,64.54
2018-09-11T01:54:44.112Z,63.66
2018-09-11T01:57:12.506Z,63.30
2018-09-11T01:59:40.874Z,63.02
2018-09-11T02:02:09.262Z,62.78
2018-09-11T02:04:37.630Z,62.64
2018-09-11T02:07:06.026Z,62.01
2018-09-11T02:09:34.398Z,62.14
2018-09-11T02:12:02.796Z,62.42
2018-09-11T02:14:31.170Z,61.81
2018-09-11T02:16:59.566Z,61.73
2018-09-11T02:19:27.934Z,62.06
2018-09-11T02:21:56.346Z,61.16
2018-09-11T02:24:24.709Z,61.74
2018-09-11T02:26:53.099Z,61.34
2018-09-11T02:29:21.470Z,60.90
2018-09-11T02:31:49.870Z,61.90
2018-09-11T02:34:18.238Z,61.39
2018-09-11T02:36:46.622Z,60.95
2018-09-11T02:39:15.002Z,61.54
2018-09-11T02:41:43.383Z,61.74
2018-09-11T02:44:12.097Z,61.12
2018-09-11T02:46:40.583Z,62.09
2018-09-11T02:49:08.980Z,61.22
2018-09-11T02:51:37.362Z,61.26
2018-09-11T02:54:05.759Z,61.18
2018-09-11T02:56:34.132Z,61.15
2018-09-11T02:59:02.531Z,62.01
2018-09-11T03:01:30.899Z,61.14
2018-09-11T03:03:59.293Z,61.95
2018-09-11T03:06:29.384Z,61.27
2018-09-11T03:08:57.774Z,61.04
2018-09-11T03:11:26.138Z,61.25
2018-09-11T03:13:54.532Z,61.13
2018-09-11T03:16:22.898Z,62.04
2018-09-11T03:18:51.366Z,61.76
2018-09-11T03:21:19.710Z,61.56
2018-09-11T03:23:48.138Z,61.38
2018-09-11T03:26:16.494Z,60.72
2018-09-11T03:28:44.889Z,60.72
2018-09-11T03:31:13.257Z,60.63
2018-09-11T03:33:41.651Z,61.51
2018-09-11T03:36:10.028Z,61.22
2018-09-11T03:38:38.424Z,61.31
2018-09-11T03:41:06.997Z,60.76
2018-09-11T03:43:35.391Z,60.88
2018-09-11T03:46:03.762Z,60.94
2018-09-11T03:48:32.166Z,61.04
2018-09-11T03:51:00.542Z,61.42
2018-09-11T03:53:28.931Z,61.27
2018-09-11T03:55:57.294Z,61.50
2018-09-11T03:58:25.716Z,62.06
2018-09-11T04:00:54.090Z,61.60
2018-09-11T04:03:22.483Z,62.18
2018-09-11T04:05:50.858Z,62.61
2018-09-11T04:08:19.243Z,63.28
2018-09-11T04:10:47.615Z,62.77
2018-09-11T04:13:16.009Z,63.86
2018-09-11T04:15:44.379Z,63.13
2018-09-11T04:18:12.863Z,63.64
2018-09-11T04:20:41.242Z,64.09
2018-09-11T04:23:09.674Z,63.94
2018-09-11T04:25:38.093Z,64.04
2018-09-11T04:28:06.478Z,63.98
2018-09-11T04:30:35.003Z,64.07
2018-09-11T04:33:03.823Z,64.81
2018-09-11T04:35:32.206Z,64.67
2018-09-11T04:38:00.657Z,64.86
2018-09-11T04:40:29.070Z,64.04
2018-09-11T04:42:57.491Z,64.94
2018-09-11T04:45:25.863Z,64.30
2018-09-11T04:47:54.226Z,64.90
2018-09-11T04:50:22.611Z,64.64
2018-09-11T04:52:50.983Z,64.62
2018-09-11T04:55:19.383Z,64.18
2018-09-11T04:57:47.758Z,65.14
2018-09-11T05:00:16.150Z,65.37
2018-09-11T05:02:44.517Z,64.79
2018-09-11T05:05:12.912Z,64.94
2018-09-11T05:07:41.311Z,65.04
2018-09-11T05:10:09.718Z,65.11
2018-09-11T05:12:38.091Z,65.30
2018-09-11T05:15:06.492Z,65.39
2018-09-11T05:17:35.053Z,65.43
2018-09-11T05:20:03.456Z,65.03
2018-09-11T05:22:31.862Z,65.09
2018-09-11T05:25:00.250Z,64.63
2018-09-11T05:27:28.675Z,65.36
2018-09-11T05:29:57.091Z,64.95
2018-09-11T05:32:25.456Z,65.07
2018-09-11T05:34:53.842Z,65.84
2018-09-11T05:37:22.220Z,66.39
2018-09-11T05:39:50.614Z,66.37
2018-09-11T05:42:19.095Z,67.16
2018-09-11T05:44:47.523Z,67.13
2018-09-11T05:47:15.969Z,68.41
2018-09-11T05:49:44.309Z,68.11
2018-09-11T05:52:12.703Z,68.86
2018-09-11T05:54:41.102Z,68.82
2018-09-11T05:57:09.462Z,69.34
2018-09-11T05:59:37.850Z,69.42
2018-09-11T06:02:07.002Z,70.00
2018-09-11T06:04:35.390Z,70.55
2018-09-11T06:07:03.919Z,70.17
2018-09-11T06:09:32.309Z,71.13
2018-09-11T06:12:00.682Z,71.78
2018-09-11T06:14:29.074Z,71.59
2018-09-11T06:16:57.445Z,72.19
2018-09-11T06:19:25.857Z,71.79
2018-09-11T06:21:54.251Z,71.48
2018-09-11T06:24:22.638Z,72.87
2018-09-11T06:26:51.010Z,72.09
2018-09-11T06:29:19.478Z,72.46
2018-09-11T06:31:47.799Z,73.79
2018-09-11T06:34:16.194Z,72.75
2018-09-11T06:36:44.563Z,72.63
2018-09-11T06:39:12.964Z,72.41
2018-09-11T06:41:41.349Z,73.26
2018-09-11T06:44:09.756Z,73.57
2018-09-11T06:46:38.130Z,73.11
2018-09-11T06:49:06.498Z,73.02
2018-09-11T06:51:34.903Z,72.94
2018-09-11T06:54:03.299Z,73.33
2018-09-11T06:56:31.702Z,73.54
2018-09-11T06:59:00.218Z,72.64
2018-09-11T07:01:28.602Z,73.15
2018-09-11T07:03:56.973Z,73.40
2018-09-11T07:06:25.366Z,73.03
2018-09-11T07:08:53.738Z,73.79
2018-09-11T07:11:22.129Z,73.85
2018-09-11T07:13:50.494Z,73.42
2018-09-11T07:16:18.891Z,73.59
2018-09-11T07:18:47.266Z,73.53
2018-09-11T07:21:15.690Z,73.29
2018-09-11T07:23:44.057Z,73.69
2018-09-11T07:26:12.584Z,73.66
2018-09-11T07:28:40.931Z,74.01
2018-09-11T07:31:09.323Z,73.21
2018-09-11T07:33:37.695Z,73.58
2018-09-11T07:36:06.085Z,73.72
2018-09-11T07:38:34.458Z,74.31
2018-09-11T07:41:02.854Z,73.66
2018-09-11T07:43:31.235Z,74.35
2018-09-11T07:45:59.626Z,74.19
2018-09-11T07:48:28.002Z,74.71
2018-09-11T07:50:56.448Z,75.00
2018-09-11T07:53:24.821Z,74.14
2018-09-11T07:55:53.219Z,74.15
2018-09-11T07:58:21.627Z,75.12
2018-09-11T08:00:50.170Z,74.40
2018-09-11T08:03:18.538Z,74.97
2018-09-11T08:05:46.934Z,75.09
2018-09-11T08:08:15.339Z,75.69
2018-09-11T08:10:43.717Z,75.52
2018-09-11T08:13:12.090Z,75.20
2018-09-11T08:15:40.484Z,74.76
2018-09-11T08:18:08.862Z,74.87
2018-09-11T08:20:37.259Z,74.99
2018-09-11T08:23:05.767Z,74.73
2018-09-11T08:25:34.158Z,73.88
2018-09-11T08:28:02.559Z,74.12
2018-09-11T08:30:32.503Z,73.99
2018-09-11T08:33:01.886Z,73.54
2018-09-11T08:35:30.451Z,73.53
2018-09-11T08:37:58.946Z,73.54
2018-09-11T08:40:27.338Z,73.50
2018-09-11T08:42:55.711Z,72.30
2018-09-11T08:45:24.174Z,72.45
2018-09-11T08:47:52.542Z,72.67
2018-09-11T08:50:20.911Z,72.61
2018-09-11T08:52:49.328Z,72.64
2018-09-11T08:55:17.695Z,71.89
2018-09-11T08:57:46.096Z,71.65
2018-09-11T09:00:14.462Z,71.16
2018-09-11T09:02:42.870Z,72.09
2018-09-11T09:05:11.246Z,70.26
2018-09-11T09:07:39.690Z,70.45
2018-09-11T09:10:08.131Z,68.93
2018-09-11T09:12:36.556Z,68.63
2018-09-11T09:15:04.937Z,68.43
2018-09-11T09:17:33.340Z,67.18
2018-09-11T09:20:01.706Z,66.13
2018-09-11T09:22:30.115Z,65.62
2018-09-11T09:24:58.486Z,65.49
2018-09-11T09:27:26.923Z,66.17
2018-09-11T09:29:55.298Z,64.93
2018-09-11T09:32:23.698Z,64.82
2018-09-11T09:34:52.074Z,63.76
2018-09-11T09:37:20.482Z,64.10
2018-09-11T09:39:48.857Z,62.03
2018-09-11T09:42:17.264Z,61.50
2018-09-11T09:44:45.646Z,61.09
2018-09-11T09:47:14.067Z,60.18
2018-09-11T09:49:42.670Z,60.39
2018-09-11T09:52:11.062Z,59.84
2018-09-11T09:54:39.437Z,59.54
2018-09-11T09:57:07.828Z,58.36
2018-09-11T09:59:36.194Z,58.11
2018-09-11T10:02:08.788Z,57.13
2018-09-11T10:04:37.170Z,57.62
2018-09-11T10:07:05.579Z,56.29
2018-09-11T10:09:33.947Z,57.14
2018-09-11T10:12:02.342Z,56.68
2018-09-11T10:14:30.715Z,56.43
2018-09-11T10:16:59.112Z,56.09
2018-09-11T10:19:27.490Z,55.41
2018-09-11T10:21:55.913Z,56.46
2018-09-11T10:24:24.295Z,55.44
2018-09-11T10:26:52.685Z,54.38
2018-09-11T10:29:21.056Z,52.62
2018-09-11T10:31:49.447Z,52.52
2018-09-11T10:34:17.828Z,51.84
2018-09-11T10:36:46.223Z,52.24
2018-09-11T10:39:14.624Z,50.72
2018-09-11T10:41:43.038Z,49.50
2018-09-11T10:44:11.443Z,49.66
2018-09-11T10:46:39.810Z,49.17
2018-09-11T10:49:08.207Z,50.04
2018-09-11T10:51:36.575Z,48.85
2018-09-11T10:54:04.975Z,49.61
2018-09-11T10:56:33.339Z,49.51
2018-09-11T10:59:01.737Z,47.73
2018-09-11T11:01:30.119Z,47.76
2018-09-11T11:03:58.546Z,47.90
2018-09-11T11:06:26.918Z,47.57
2018-09-11T11:08:55.319Z,47.20
2018-09-11T11:11:23.702Z,47.27
2018-09-11T11:13:52.095Z,47.16
2018-09-11T11:16:20.495Z,47.41
2018-09-11T11:18:48.897Z,47.01
2018-09-11T11:21:17.630Z,47.21
2018-09-11T11:23:46.162Z,47.75
2018-09-11T11:26:14.534Z,46.91
2018-09-11T11:28:42.974Z,45.54
2018-09-11T11:31:11.355Z,45.19
2018-09-11T11:33:39.747Z,44.37
2018-09-11T11:36:08.191Z,44.74
2018-09-11T11:38:36.539Z,45.78
2018-09-11T11:41:04.908Z,44.96
2018-09-11T11:43:33.303Z,45.76
2018-09-11T11:46:01.671Z,46.36
2018-09-11T11:48:30.070Z,45.99
2018-09-11T11:50:58.430Z,46.80
2018-09-11T11:53:26.830Z,45.97
2018-09-11T11:55:55.255Z,45.85
2018-09-11T11:58:23.654Z,46.68
2018-09-11T12:00:52.081Z,45.83
2018-09-11T12:03:20.474Z,46.37
2018-09-11T12:05:48.838Z,45.62
2018-09-11T12:08:17.231Z,45.02
2018-09-11T12:10:45.639Z,44.18
2018-09-11T12:13:14.033Z,43.82
2018-09-11T12:15:42.407Z,42.65
2018-09-11T12:18:10.810Z,41.21
2018-09-11T12:20:39.182Z,41.37
2018-09-11T12:23:07.607Z,42.32
2018-09-11T12:25:36.130Z,42.47
2018-09-11T12:28:04.398Z,41.88
2018-09-11T12:30:32.771Z,41.43
2018-09-11T12:33:01.366Z,41.44
2018-09-11T12:35:29.742Z,41.72
2018-09-11T12:37:58.126Z,41.94
2018-09-11T12:40:26.519Z,41.53
2018-09-11T12:42:54.935Z,42.68
2018-09-11T12:45:23.307Z,43.05
2018-09-11T12:47:52.144Z,41.93
2018-09-11T12:50:20.107Z,41.29
2018-09-11T12:52:48.510Z,42.20
2018-09-11T12:55:16.910Z,41.63
2018-09-11T12:57:45.299Z,42.25
2018-09-11T13:00:13.703Z,41.55
2018-09-11T13:02:42.065Z,40.78
2018-09-11T13:05:10.462Z,41.25
2018-09-11T13:07:39.691Z,41.88
2018-09-11T13:10:08.107Z,41.85
2018-09-11T13:12:36.479Z,40.62
2018-09-11T13:15:05.484Z,39.96
2018-09-11T13:17:33.785Z,41.12
2018-09-11T13:20:02.181Z,40.62
2018-09-11T13:22:30.574Z,39.32
2018-09-11T13:24:58.998Z,39.32
2018-09-11T13:27:27.370Z,39.18
2018-09-11T13:29:55.762Z,38.75
2018-09-11T13:32:24.147Z,39.59
2018-09-11T13:34:52.550Z,39.80
2018-09-11T13:37:20.911Z,39.00
2018-09-11T13:39:49.311Z,39.54
2018-09-11T13:42:17.679Z,38.70
2018-09-11T13:44:46.070Z,39.23
2018-09-11T13:47:14.561Z,38.36
2018-09-11T13:49:42.859Z,37.99
2018-09-11T13:52:11.235Z,38.27
2018-09-11T13:54:39.626Z,38.57
2018-09-11T13:57:07.998Z,38.42
2018-09-11T13:59:36.484Z,37.67
2018-09-11T14:02:05.052Z,37.32
2018-09-11T14:04:33.442Z,39.12
2018-09-11T14:07:01.814Z,37.99
2018-09-11T14:09:30.212Z,37.40
2018-09-11T14:11:58.586Z,37.35
2018-09-11T14:14:26.995Z,37.73
2018-09-11T14:16:55.373Z,38.40
2018-09-11T14:19:23.770Z,38.38
2018-09-11T14:21:52.167Z,37.80
2018-09-11T14:24:20.562Z,39.38
2018-09-11T14:26:49.019Z,38.39
2018-09-11T14:29:17.414Z,38.08
2018-09-11T14:31:45.885Z,38.87
2018-09-11T14:34:14.367Z,38.68
2018-09-11T14:36:42.755Z,39.48
2018-09-11T14:39:11.993Z,38.03
2018-09-11T14:41:40.642Z,37.99
2018-09-11T14:44:09.051Z,39.00
2018-09-11T14:46:37.577Z,38.46
2018-09-11T14:49:06.223Z,38.51
2018-09-11T14:51:34.640Z,38.43
2018-09-11T14:54:03.041Z,39.28
2018-09-11T14:56:31.438Z,39.62
2018-09-11T14:58:59.826Z,39.18
2018-09-11T15:01:28.243Z,39.36
2018-09-11T15:03:56.727Z,39.25
2018-09-11T15:06:25.116Z,39.80
2018-09-11T15:08:53.638Z,38.31
2018-09-11T15:11:22.066Z,38.46
2018-09-11T15:13:50.551Z,38.71
2018-09-11T15:16:18.950Z,39.69
2018-09-11T15:18:47.363Z,38.95
2018-09-11T15:21:15.781Z,39.26
2018-09-11T15:23:44.154Z,38.89
2018-09-11T15:26:12.546Z,39.73
2018-09-11T15:28:40.918Z,38.84
2018-09-11T15:31:09.318Z,39.29
2018-09-11T15:33:37.741Z,39.22
2018-09-11T15:36:06.183Z,39.43
2018-09-11T15:38:34.577Z,39.57
2018-09-11T15:41:02.979Z,40.03
2018-09-11T15:43:31.356Z,39.55
2018-09-11T15:45:59.876Z,40.08
2018-09-11T15:48:28.242Z,39.03
2018-09-11T15:50:56.640Z,39.98
2018-09-11T15:53:25.009Z,39.98
2018-09-11T15:55:53.542Z,39.54
2018-09-11T15:58:21.886Z,38.67
2018-09-11T16:00:50.279Z,39.24
2018-09-11T16:03:18.654Z,39.08
2018-09-11T16:05:47.042Z,38.64
2018-09-11T16:08:15.406Z,38.50
2018-09-11T16:10:43.794Z,38.90
2018-09-11T16:13:12.162Z,38.77
2018-09-11T16:15:40.562Z,39.91
2018-09-11T16:18:08.942Z,39.46
2018-09-11T16:20:37.343Z,39.29
2018-09-11T16:23:05.881Z,40.00
2018-09-11T16:25:34.280Z,39.76
2018-09-11T16:28:02.652Z,39.65
2018-09-11T16:30:31.053Z,39.77
2018-09-11T16:32:59.424Z,39.24
2018-09-11T16:35:27.814Z,40.40
2018-09-11T16:37:56.187Z,39.15
2018-09-11T16:40:24.583Z,39.71
2018-09-11T16:42:53.170Z,40.95
2018-09-11T16:45:21.622Z,40.79
2018-09-11T16:47:49.998Z,40.37
2018-09-11T16:50:18.366Z,40.34
2018-09-11T16:52:46.863Z,40.95
2018-09-11T16:55:15.238Z,41.10
2018-09-11T16:57:43.638Z,40.60
2018-09-11T17:00:12.014Z,41.75
2018-09-11T17:02:40.446Z,41.44
2018-09-11T17:05:08.838Z,41.84
2018-09-11T17:07:37.287Z,41.44
2018-09-11T17:10:05.899Z,41.50
2018-09-11T17:12:34.299Z,41.63
2018-09-11T17:15:02.820Z,41.94
2018-09-11T17:17:31.234Z,42.28
2018-09-11T17:19:59.606Z,42.44
2018-09-11T17:22:28.027Z,41.35
2018-09-11T17:24:56.502Z,41.68
2018-09-11T17:27:24.894Z,42.43
2018-09-11T17:29:53.266Z,42.50
2018-09-11T17:32:21.668Z,42.23
2018-09-11T17:34:50.207Z,41.44
2018-09-11T17:37:18.751Z,42.90
2018-09-11T17:39:47.132Z,43.31
2018-09-11T17:42:15.540Z,43.38
2018-09-11T17:44:43.907Z,43.20
2018-09-11T17:47:12.306Z,42.25
2018-09-11T17:49:40.682Z,43.18
2018-09-11T17:52:09.088Z,42.55
2018-09-11T17:54:37.465Z,43.40
2018-09-11T17:57:05.955Z,43.53
2018-09-11T17:59:34.335Z,43.58
2018-09-11T18:02:02.752Z,43.10
2018-09-11T18:04:31.148Z,43.47
2018-09-11T18:06:59.546Z,42.89
2018-09-11T18:09:27.924Z,43.70
2018-09-11T18:11:56.328Z,43.91
2018-09-11T18:14:24.694Z,43.27
2018-09-11T18:16:53.108Z,43.97
2018-09-11T18:19:21.475Z,43.66
2018-09-11T18:21:49.887Z,44.71
2018-09-11T18:24:18.255Z,43.70
2018-09-11T18:26:46.651Z,44.66
2018-09-11T18:29:15.030Z,44.26
2018-09-11T18:31:43.431Z,45.02
2018-09-11T18:34:11.798Z,44.01
2018-09-11T18:36:40.228Z,44.46
2018-09-11T18:39:09.601Z,44.75
2018-09-11T18:41:38.023Z,45.03
2018-09-11T18:44:06.520Z,45.85
2018-09-11T18:46:34.931Z,45.38
2018-09-11T18:49:03.518Z,45.74
2018-09-11T18:51:31.938Z,46.73
2018-09-11T18:54:00.310Z,46.96
2018-09-11T18:56:28.678Z,46.50
2018-09-11T18:58:57.071Z,47.55
2018-09-11T19:01:25.438Z,47.02
2018-09-11T19:03:53.831Z,47.99
2018-09-11T19:06:22.198Z,47.47
2018-09-11T19:08:50.586Z,49.34
2018-09-11T19:11:18.964Z,49.73
2018-09-11T19:13:47.363Z,49.59
2018-09-11T19:16:15.755Z,50.29
2018-09-11T19:18:44.151Z,50.10
2018-09-11T19:21:12.554Z,51.15
2018-09-11T19:23:40.943Z,50.90
2018-09-11T19:26:09.315Z,51.00
2018-09-11T19:28:37.721Z,51.19
2018-09-11T19:31:06.237Z,52.24
2018-09-11T19:33:34.626Z,52.14
2018-09-11T19:36:03.007Z,52.29
2018-09-11T19:38:31.423Z,52.79
2018-09-11T19:40:59.794Z,52.98
2018-09-11T19:43:28.191Z,54.30
2018-09-11T19:45:56.563Z,54.69
2018-09-11T19:48:24.963Z,55.00
2018-09-11T19:50:53.335Z,54.89
2018-09-11T19:53:21.731Z,56.06
2018-09-11T19:55:50.107Z,55.46
2018-09-11T19:58:18.575Z,56.66
2018-09-11T20:00:47.022Z,56.09
2018-09-11T20:03:15.418Z,56.68
2018-09-11T20:05:43.786Z,56.62
2018-09-11T20:08:12.185Z,56.90
2018-09-11T20:10:40.558Z,57.34
2018-09-11T20:13:08.958Z,57.37
2018-09-11T20:15:37.326Z,58.18
2018-09-11T20:18:05.754Z,57.93
2018-09-11T20:20:34.199Z,58.76
2018-09-11T20:23:02.674Z,58.53
2018-09-11T20:25:31.084Z,58.86
2018-09-11T20:27:59.462Z,59.86
2018-09-11T20:30:27.839Z,59.57
2018-09-11T20:32:56.239Z,59.61
2018-09-11T20:35:24.712Z,60.10
2018-09-11T20:37:53.102Z,60.55
2018-09-11T20:40:21.470Z,61.07
2018-09-11T20:42:49.891Z,61.16
2018-09-11T20:45:18.264Z,60.50
2018-09-11T20:47:46.638Z,60.81
2018-09-11T20:50:15.039Z,61.32
2018-09-11T20:52:43.414Z,61.10
2018-09-11T20:55:11.848Z,62.04
2018-09-11T20:57:40.217Z,61.56
2018-09-11T21:00:08.630Z,62.44
2018-09-11T21:02:37.002Z,62.69
2018-09-11T21:05:05.402Z,62.75
2018-09-11T21:07:33.775Z,62.04
2018-09-11T21:10:02.172Z,62.96
2018-09-11T21:12:30.551Z,63.01
2018-09-11T21:14:58.960Z,63.22
2018-09-11T21:17:27.334Z,63.10
2018-09-11T21:19:55.731Z,63.30
2018-09-11T21:22:24.162Z,62.75
2018-09-11T21:24:52.573Z,63.50
2018-09-11T21:27:20.985Z,62.90
2018-09-11T21:29:49.379Z,63.15
2018-09-11T21:32:17.759Z,63.65
2018-09-11T21:34:46.154Z,63.69
2018-09-11T21:37:14.530Z,63.30
2018-09-11T21:39:42.926Z,63.81
2018-09-11T21:42:11.299Z,64.02
2018-09-11T21:44:39.694Z,63.59
2018-09-11T21:47:08.070Z,64.08
2018-09-11T21:49:36.470Z,63.36
2018-09-11T21:52:04.897Z,63.44
2018-09-11T21:54:33.272Z,63.40
2018-09-11T21:57:01.646Z,63.45
2018-09-11T21:59:30.042Z,63.69
2018-09-11T22:02:01.757Z,63.72
2018-09-11T22:04:30.210Z,63.48
2018-09-11T22:06:58.626Z,64.33
2018-09-11T22:09:27.026Z,64.36
2018-09-11T22:11:55.467Z,63.57
2018-09-11T22:14:23.840Z,63.66
2018-09-11T22:16:52.213Z,64.08
2018-09-11T22:19:20.632Z,64.52
2018-09-11T22:21:49.043Z,64.46
2018-09-11T22:24:17.443Z,64.39
2018-09-11T22:26:45.818Z,64.74
2018-09-11T22:29:14.210Z,63.85
2018-09-11T22:31:42.586Z,64.05
2018-09-11T22:34:10.984Z,64.43
2018-09-11T22:36:39.367Z,65.58
2018-09-11T22:39:08.427Z,64.57
2018-09-11T22:41:36.825Z,64.72
2018-09-11T22:44:05.238Z,64.74
2018-09-11T22:46:33.625Z,64.77
2018-09-11T22:49:02.038Z,65.54
2018-09-11T22:51:30.423Z,65.76
2018-09-11T22:53:58.793Z,65.74
2018-09-11T22:56:27.190Z,65.51
2018-09-11T22:58:55.567Z,65.49
2018-09-11T23:01:23.966Z,65.77
2018-09-11T23:03:52.343Z,65.01
2018-09-11T23:06:20.911Z,65.15
2018-09-11T23:08:49.294Z,65.05
2018-09-11T23:11:17.695Z,65.86
2018-09-11T23:13:46.072Z,65.23
2018-09-11T23:16:14.470Z,65.58
2018-09-11T23:18:42.850Z,64.80
2018-09-11T23:21:11.253Z,65.51
2018-09-11T23:23:39.646Z,64.70
2018-09-11T23:26:08.178Z,64.84
2018-09-11T23:28:36.562Z,64.73
2018-09-11T23:31:04.964Z,65.48
2018-09-11T23:33:33.339Z,65.25
2018-09-11T23:36:01.749Z,64.76
2018-09-11T23:38:30.135Z,65.05
2018-09-11T23:40:58.534Z,65.43
2018-09-11T23:43:26.930Z,65.60
2018-09-11T23:45:55.332Z,65.63
2018-09-11T23:48:23.711Z,65.56
2018-09-11T23:50:52.111Z,64.70
2018-09-11T23:53:20.482Z,65.67
2018-09-11T23:55:48.887Z,64.95
2018-09-11T23:58:17.265Z,64.85
